ROKJ(METAR)
10/20 19:00
ROKJ 201000Z 07012KT 9999 FEW015 BKNXXX 27/23 Q1014 RMK A2997=
戻る
トップページへ戻る
IMOC Co,.Ltd.